Caparra Hills, Puerto Rico
Current Conditions -  °F | °C
As of 5:56 AM on Wednesday 26 Nov 2014 (Local Time) from TJSJ Reporting Station
Light Rain Light Rain  
Wind Chill: 75°   Ceiling: 6000
Heat Index: 75°   Visibility: 10mi
Dew Point: 74°   Wind: 3mph
Humidity: 96%   Direction: 150°SSE
Pressure: 29.99"   Gusts: NA
Location:  18.4076°N, 66.0925°W
Report Text: TJSJ 260956Z 15003KT 10SM -RA FEW025 SCT038 BKN060 24/23 A2999 RMK AO2 RAB07 SLP154 P0004 T02390233
Loading
Personal Weather Stations






























Interactive Weather Map New forecast layout! Learn more

10-Day Weather Forecast

Advertisements
Track Severe Weather on mobile